sensor_id;sensor_type;location;lat;lon;timestamp;P1;durP1;ratioP1;P2;durP2;ratioP2
23360;SDS011;11852;50.082;18.554;2023-06-22T00:00:54;10.4;;;3.0;;
23360;SDS011;11852;50.082;18.554;2023-06-22T00:01:59;11.5;;;3.2;;
23360;SDS011;11852;50.082;18.554;2023-06-22T00:03:03;13.2;;;3.5;;
23360;SDS011;11852;50.082;18.554;2023-06-22T00:04:08;12.4;;;3.6;;
23360;SDS011;11852;50.082;18.554;2023-06-22T00:05:13;12.1;;;3.2;;
23360;SDS011;11852;50.082;18.554;2023-06-22T00:06:18;13.0;;;3.3;;
23360;SDS011;11852;50.082;18.554;2023-06-22T00:07:23;11.2;;;3.2;;
23360;SDS011;11852;50.082;18.554;2023-06-22T00:08:28;12.7;;;3.6;;
23360;SDS011;11852;50.082;18.554;2023-06-22T00:09:33;12.5;;;3.3;;
23360;SDS011;11852;50.082;18.554;2023-06-22T00:10:38;11.6;;;3.4;;
23360;SDS011;11852;50.082;18.554;2023-06-22T00:11:44;11.0;;;3.2;;
23360;SDS011;11852;50.082;18.554;2023-06-22T00:12:50;11.6;;;3.8;;
23360;SDS011;11852;50.082;18.554;2023-06-22T00:13:56;12.0;;;3.3;;
23360;SDS011;11852;50.082;18.554;2023-06-22T00:15:01;11.6;;;3.4;;
23360;SDS011;11852;50.082;18.554;2023-06-22T00:16:07;10.4;;;3.5;;
23360;SDS011;11852;50.082;18.554;2023-06-22T00:17:12;11.7;;;3.4;;
23360;SDS011;11852;50.082;18.554;2023-06-22T00:18:18;13.1;;;3.9;;
23360;SDS011;11852;50.082;18.554;2023-06-22T00:19:25;12.2;;;3.1;;
23360;SDS011;11852;50.082;18.554;2023-06-22T00:20:30;9.5;;;3.3;;
23360;SDS011;11852;50.082;18.554;2023-06-22T00:21:35;13.7;;;3.6;;
23360;SDS011;11852;50.082;18.554;2023-06-22T00:22:42;11.3;;;3.6;;
23360;SDS011;11852;50.082;18.554;2023-06-22T00:23:46;11.4;;;3.9;;
23360;SDS011;11852;50.082;18.554;2023-06-22T00:24:51;11.6;;;3.5;;
23360;SDS011;11852;50.082;18.554;2023-06-22T00:25:56;11.9;;;3.5;;
23360;SDS011;11852;50.082;18.554;2023-06-22T00:27:01;11.3;;;3.5;;
23360;SDS011;11852;50.082;18.554;2023-06-22T00:28:07;12.7;;;3.4;;
23360;SDS011;11852;50.082;18.554;2023-06-22T00:29:12;11.5;;;3.6;;
23360;SDS011;11852;50.082;18.554;2023-06-22T00:30:17;12.9;;;3.7;;
23360;SDS011;11852;50.082;18.554;2023-06-22T00:31:22;15.1;;;4.0;;
23360;SDS011;11852;50.082;18.554;2023-06-22T00:32:28;13.0;;;3.9;;
23360;SDS011;11852;50.082;18.554;2023-06-22T00:33:33;13.9;;;4.2;;
23360;SDS011;11852;50.082;18.554;2023-06-22T00:34:38;11.5;;;3.9;;
23360;SDS011;11852;50.082;18.554;2023-06-22T00:35:44;12.3;;;3.5;;
23360;SDS011;11852;50.082;18.554;2023-06-22T00:36:50;11.1;;;3.4;;
23360;SDS011;11852;50.082;18.554;2023-06-22T00:37:58;13.4;;;3.2;;
23360;SDS011;11852;50.082;18.554;2023-06-22T00:39:03;11.6;;;3.3;;
23360;SDS011;11852;50.082;18.554;2023-06-22T00:40:09;12.6;;;3.3;;
23360;SDS011;11852;50.082;18.554;2023-06-22T00:41:14;12.8;;;3.6;;
23360;SDS011;11852;50.082;18.554;2023-06-22T00:42:19;12.2;;;3.5;;
23360;SDS011;11852;50.082;18.554;2023-06-22T00:43:23;12.5;;;3.8;;
23360;SDS011;11852;50.082;18.554;2023-06-22T00:44:28;12.8;;;3.6;;
23360;SDS011;11852;50.082;18.554;2023-06-22T00:45:36;12.8;;;3.3;;
23360;SDS011;11852;50.082;18.554;2023-06-22T00:46:41;12.2;;;3.9;;
23360;SDS011;11852;50.082;18.554;2023-06-22T00:47:46;14.5;;;4.1;;
23360;SDS011;11852;50.082;18.554;2023-06-22T00:48:52;12.8;;;3.9;;
23360;SDS011;11852;50.082;18.554;2023-06-22T00:49:57;12.4;;;3.7;;
23360;SDS011;11852;50.082;18.554;2023-06-22T00:51:02;11.7;;;3.6;;
23360;SDS011;11852;50.082;18.554;2023-06-22T00:52:07;11.9;;;4.0;;
23360;SDS011;11852;50.082;18.554;2023-06-22T00:53:11;11.5;;;3.8;;
23360;SDS011;11852;50.082;18.554;2023-06-22T00:54:17;17.2;;;4.1;;
23360;SDS011;11852;50.082;18.554;2023-06-22T00:55:22;13.6;;;3.6;;
23360;SDS011;11852;50.082;18.554;2023-06-22T00:56:27;11.0;;;4.0;;
23360;SDS011;11852;50.082;18.554;2023-06-22T00:57:33;12.4;;;3.5;;
23360;SDS011;11852;50.082;18.554;2023-06-22T00:58:37;12.9;;;3.6;;
23360;SDS011;11852;50.082;18.554;2023-06-22T00:59:43;14.0;;;3.6;;
23360;SDS011;11852;50.082;18.554;2023-06-22T01:00:47;11.0;;;3.6;;
23360;SDS011;11852;50.082;18.554;2023-06-22T01:01:53;10.8;;;3.7;;
23360;SDS011;11852;50.082;18.554;2023-06-22T01:02:58;12.0;;;3.8;;
23360;SDS011;11852;50.082;18.554;2023-06-22T01:04:02;12.2;;;3.9;;
23360;SDS011;11852;50.082;18.554;2023-06-22T01:05:08;12.9;;;3.5;;
23360;SDS011;11852;50.082;18.554;2023-06-22T01:06:14;11.0;;;3.3;;
23360;SDS011;11852;50.082;18.554;2023-06-22T01:07:22;12.0;;;3.4;;
23360;SDS011;11852;50.082;18.554;2023-06-22T01:09:39;11.2;;;3.4;;
23360;SDS011;11852;50.082;18.554;2023-06-22T01:11:57;12.7;;;3.7;;
23360;SDS011;11852;50.082;18.554;2023-06-22T01:13:04;12.1;;;3.6;;
23360;SDS011;11852;50.082;18.554;2023-06-22T01:15:23;11.5;;;3.6;;
23360;SDS011;11852;50.082;18.554;2023-06-22T01:16:29;12.2;;;3.9;;
23360;SDS011;11852;50.082;18.554;2023-06-22T01:17:32;12.2;;;3.6;;
23360;SDS011;11852;50.082;18.554;2023-06-22T01:18:36;12.4;;;3.7;;
23360;SDS011;11852;50.082;18.554;2023-06-22T01:19:46;10.2;;;3.9;;
23360;SDS011;11852;50.082;18.554;2023-06-22T01:20:50;9.9;;;3.4;;
23360;SDS011;11852;50.082;18.554;2023-06-22T01:21:55;12.8;;;3.8;;
23360;SDS011;11852;50.082;18.554;2023-06-22T01:25:20;13.7;;;3.9;;
23360;SDS011;11852;50.082;18.554;2023-06-22T01:28:59;11.8;;;3.8;;
23360;SDS011;11852;50.082;18.554;2023-06-22T01:30:04;10.1;;;3.6;;
23360;SDS011;11852;50.082;18.554;2023-06-22T01:31:31;12.4;;;3.7;;
23360;SDS011;11852;50.082;18.554;2023-06-22T01:32:20;13.5;;;3.5;;
23360;SDS011;11852;50.082;18.554;2023-06-22T01:33:25;11.7;;;3.5;;
23360;SDS011;11852;50.082;18.554;2023-06-22T01:34:30;11.0;;;3.6;;
23360;SDS011;11852;50.082;18.554;2023-06-22T01:35:35;12.0;;;3.7;;
23360;SDS011;11852;50.082;18.554;2023-06-22T01:36:40;10.9;;;3.8;;
23360;SDS011;11852;50.082;18.554;2023-06-22T01:37:45;10.8;;;3.4;;
23360;SDS011;11852;50.082;18.554;2023-06-22T01:38:50;11.1;;;3.8;;
23360;SDS011;11852;50.082;18.554;2023-06-22T01:39:55;14.0;;;4.2;;
23360;SDS011;11852;50.082;18.554;2023-06-22T01:41:00;10.9;;;3.8;;
23360;SDS011;11852;50.082;18.554;2023-06-22T01:42:05;13.2;;;4.2;;
23360;SDS011;11852;50.082;18.554;2023-06-22T01:43:09;11.5;;;3.8;;
23360;SDS011;11852;50.082;18.554;2023-06-22T01:44:14;13.2;;;3.9;;
23360;SDS011;11852;50.082;18.554;2023-06-22T01:45:19;12.9;;;3.6;;
23360;SDS011;11852;50.082;18.554;2023-06-22T01:46:25;12.0;;;4.0;;
23360;SDS011;11852;50.082;18.554;2023-06-22T01:47:30;11.5;;;3.8;;
23360;SDS011;11852;50.082;18.554;2023-06-22T01:48:35;14.0;;;4.2;;
23360;SDS011;11852;50.082;18.554;2023-06-22T01:49:41;13.3;;;3.9;;
23360;SDS011;11852;50.082;18.554;2023-06-22T01:50:46;10.3;;;3.5;;
23360;SDS011;11852;50.082;18.554;2023-06-22T01:51:52;12.3;;;4.0;;
23360;SDS011;11852;50.082;18.554;2023-06-22T01:52:56;11.4;;;4.3;;
23360;SDS011;11852;50.082;18.554;2023-06-22T01:54:01;12.7;;;4.1;;
23360;SDS011;11852;50.082;18.554;2023-06-22T01:55:07;12.0;;;3.7;;
23360;SDS011;11852;50.082;18.554;2023-06-22T01:56:12;15.2;;;4.6;;
23360;SDS011;11852;50.082;18.554;2023-06-22T01:57:17;16.2;;;4.4;;
23360;SDS011;11852;50.082;18.554;2023-06-22T01:58:23;15.3;;;4.5;;
23360;SDS011;11852;50.082;18.554;2023-06-22T02:00:45;13.7;;;4.5;;
23360;SDS011;11852;50.082;18.554;2023-06-22T02:02:59;15.2;;;5.0;;
23360;SDS011;11852;50.082;18.554;2023-06-22T02:04:06;15.4;;;5.0;;
23360;SDS011;11852;50.082;18.554;2023-06-22T02:05:09;15.5;;;5.1;;
23360;SDS011;11852;50.082;18.554;2023-06-22T02:06:17;14.3;;;5.1;;
23360;SDS011;11852;50.082;18.554;2023-06-22T02:07:18;20.8;;;5.4;;
23360;SDS011;11852;50.082;18.554;2023-06-22T02:08:24;13.9;;;5.2;;
23360;SDS011;11852;50.082;18.554;2023-06-22T02:09:29;13.5;;;5.3;;
23360;SDS011;11852;50.082;18.554;2023-06-22T02:10:34;14.9;;;5.1;;
23360;SDS011;11852;50.082;18.554;2023-06-22T02:11:40;14.4;;;5.5;;
23360;SDS011;11852;50.082;18.554;2023-06-22T02:12:45;17.3;;;5.0;;
23360;SDS011;11852;50.082;18.554;2023-06-22T02:13:50;15.3;;;5.1;;
23360;SDS011;11852;50.082;18.554;2023-06-22T02:14:55;15.6;;;5.3;;
23360;SDS011;11852;50.082;18.554;2023-06-22T02:16:01;15.0;;;5.0;;
23360;SDS011;11852;50.082;18.554;2023-06-22T02:17:09;14.8;;;4.9;;
23360;SDS011;11852;50.082;18.554;2023-06-22T02:18:14;13.9;;;4.8;;
23360;SDS011;11852;50.082;18.554;2023-06-22T02:19:23;13.5;;;5.0;;
23360;SDS011;11852;50.082;18.554;2023-06-22T02:20:28;13.0;;;4.8;;
23360;SDS011;11852;50.082;18.554;2023-06-22T02:21:33;13.9;;;5.0;;
23360;SDS011;11852;50.082;18.554;2023-06-22T02:22:39;14.2;;;5.2;;
23360;SDS011;11852;50.082;18.554;2023-06-22T02:23:44;13.8;;;5.2;;
23360;SDS011;11852;50.082;18.554;2023-06-22T02:24:49;15.4;;;4.9;;
23360;SDS011;11852;50.082;18.554;2023-06-22T02:25:53;14.6;;;5.1;;
23360;SDS011;11852;50.082;18.554;2023-06-22T02:27:01;14.8;;;4.8;;
23360;SDS011;11852;50.082;18.554;2023-06-22T02:28:06;14.7;;;5.4;;
23360;SDS011;11852;50.082;18.554;2023-06-22T02:29:11;13.6;;;4.8;;
23360;SDS011;11852;50.082;18.554;2023-06-22T02:30:15;13.6;;;4.7;;
23360;SDS011;11852;50.082;18.554;2023-06-22T02:31:20;14.7;;;5.2;;
23360;SDS011;11852;50.082;18.554;2023-06-22T02:32:26;16.0;;;5.8;;
23360;SDS011;11852;50.082;18.554;2023-06-22T02:33:31;18.9;;;5.3;;
23360;SDS011;11852;50.082;18.554;2023-06-22T02:34:36;14.2;;;5.0;;
23360;SDS011;11852;50.082;18.554;2023-06-22T02:35:40;16.7;;;5.3;;
23360;SDS011;11852;50.082;18.554;2023-06-22T02:36:46;15.9;;;5.8;;
23360;SDS011;11852;50.082;18.554;2023-06-22T02:37:50;14.9;;;5.6;;
23360;SDS011;11852;50.082;18.554;2023-06-22T02:38:55;15.3;;;5.6;;
23360;SDS011;11852;50.082;18.554;2023-06-22T02:40:00;16.1;;;5.7;;
23360;SDS011;11852;50.082;18.554;2023-06-22T02:41:05;16.8;;;5.7;;
23360;SDS011;11852;50.082;18.554;2023-06-22T02:42:13;14.3;;;5.3;;
23360;SDS011;11852;50.082;18.554;2023-06-22T02:43:18;15.6;;;5.8;;
23360;SDS011;11852;50.082;18.554;2023-06-22T02:44:23;14.3;;;5.6;;
23360;SDS011;11852;50.082;18.554;2023-06-22T02:45:28;14.8;;;5.4;;
23360;SDS011;11852;50.082;18.554;2023-06-22T02:46:33;15.8;;;5.7;;
23360;SDS011;11852;50.082;18.554;2023-06-22T02:47:37;14.8;;;5.6;;
23360;SDS011;11852;50.082;18.554;2023-06-22T02:48:42;18.2;;;6.3;;
23360;SDS011;11852;50.082;18.554;2023-06-22T02:49:47;17.5;;;5.8;;
23360;SDS011;11852;50.082;18.554;2023-06-22T02:50:52;16.1;;;5.3;;
23360;SDS011;11852;50.082;18.554;2023-06-22T02:51:57;13.9;;;5.6;;
23360;SDS011;11852;50.082;18.554;2023-06-22T02:53:02;14.7;;;5.6;;
23360;SDS011;11852;50.082;18.554;2023-06-22T02:54:06;15.4;;;5.6;;
23360;SDS011;11852;50.082;18.554;2023-06-22T02:55:13;15.6;;;6.1;;
23360;SDS011;11852;50.082;18.554;2023-06-22T02:56:17;16.4;;;5.8;;
23360;SDS011;11852;50.082;18.554;2023-06-22T02:57:22;15.9;;;5.9;;
23360;SDS011;11852;50.082;18.554;2023-06-22T02:58:27;12.6;;;5.5;;
23360;SDS011;11852;50.082;18.554;2023-06-22T02:59:32;13.5;;;5.3;;
23360;SDS011;11852;50.082;18.554;2023-06-22T03:00:37;12.5;;;5.6;;
23360;SDS011;11852;50.082;18.554;2023-06-22T03:01:43;15.3;;;5.8;;
23360;SDS011;11852;50.082;18.554;2023-06-22T03:02:48;14.1;;;5.3;;
23360;SDS011;11852;50.082;18.554;2023-06-22T03:03:56;15.9;;;5.9;;
23360;SDS011;11852;50.082;18.554;2023-06-22T03:05:01;16.9;;;5.7;;
23360;SDS011;11852;50.082;18.554;2023-06-22T03:06:07;12.9;;;5.7;;
23360;SDS011;11852;50.082;18.554;2023-06-22T03:07:13;14.2;;;5.3;;
23360;SDS011;11852;50.082;18.554;2023-06-22T03:08:18;14.3;;;5.4;;
23360;SDS011;11852;50.082;18.554;2023-06-22T03:09:24;12.4;;;5.4;;
23360;SDS011;11852;50.082;18.554;2023-06-22T03:10:30;15.0;;;5.4;;
23360;SDS011;11852;50.082;18.554;2023-06-22T03:11:34;15.8;;;5.6;;
23360;SDS011;11852;50.082;18.554;2023-06-22T03:12:39;12.6;;;5.2;;
23360;SDS011;11852;50.082;18.554;2023-06-22T03:13:45;16.0;;;5.7;;
23360;SDS011;11852;50.082;18.554;2023-06-22T03:14:50;14.6;;;4.8;;
23360;SDS011;11852;50.082;18.554;2023-06-22T03:15:55;14.1;;;5.3;;
23360;SDS011;11852;50.082;18.554;2023-06-22T03:17:01;15.6;;;5.8;;
23360;SDS011;11852;50.082;18.554;2023-06-22T03:18:06;12.5;;;5.0;;
23360;SDS011;11852;50.082;18.554;2023-06-22T03:19:11;11.6;;;4.8;;
23360;SDS011;11852;50.082;18.554;2023-06-22T03:20:16;13.5;;;5.5;;
23360;SDS011;11852;50.082;18.554;2023-06-22T03:21:25;14.8;;;5.4;;
23360;SDS011;11852;50.082;18.554;2023-06-22T03:22:28;13.6;;;5.6;;
23360;SDS011;11852;50.082;18.554;2023-06-22T03:23:35;16.0;;;5.9;;
23360;SDS011;11852;50.082;18.554;2023-06-22T03:24:41;12.7;;;5.4;;
23360;SDS011;11852;50.082;18.554;2023-06-22T03:25:46;14.4;;;5.6;;
23360;SDS011;11852;50.082;18.554;2023-06-22T03:26:52;17.4;;;5.6;;
23360;SDS011;11852;50.082;18.554;2023-06-22T03:27:57;16.2;;;5.8;;
23360;SDS011;11852;50.082;18.554;2023-06-22T03:29:02;13.8;;;5.5;;
23360;SDS011;11852;50.082;18.554;2023-06-22T03:30:08;13.0;;;5.2;;
23360;SDS011;11852;50.082;18.554;2023-06-22T03:31:12;16.4;;;5.4;;
23360;SDS011;11852;50.082;18.554;2023-06-22T03:32:18;13.6;;;5.1;;
23360;SDS011;11852;50.082;18.554;2023-06-22T03:33:22;18.7;;;6.2;;
23360;SDS011;11852;50.082;18.554;2023-06-22T03:34:27;15.3;;;5.4;;
23360;SDS011;11852;50.082;18.554;2023-06-22T03:35:34;12.4;;;4.8;;
23360;SDS011;11852;50.082;18.554;2023-06-22T03:36:39;14.3;;;5.1;;
23360;SDS011;11852;50.082;18.554;2023-06-22T03:37:45;16.2;;;5.6;;
23360;SDS011;11852;50.082;18.554;2023-06-22T03:38:51;16.1;;;5.5;;
23360;SDS011;11852;50.082;18.554;2023-06-22T03:39:55;14.7;;;5.6;;
23360;SDS011;11852;50.082;18.554;2023-06-22T03:41:01;15.2;;;5.3;;
23360;SDS011;11852;50.082;18.554;2023-06-22T03:42:08;15.0;;;5.6;;
23360;SDS011;11852;50.082;18.554;2023-06-22T03:43:13;14.8;;;5.4;;
23360;SDS011;11852;50.082;18.554;2023-06-22T03:44:17;15.3;;;5.4;;
23360;SDS011;11852;50.082;18.554;2023-06-22T03:45:23;17.0;;;5.4;;
23360;SDS011;11852;50.082;18.554;2023-06-22T03:46:29;15.0;;;5.2;;
23360;SDS011;11852;50.082;18.554;2023-06-22T03:47:35;16.5;;;5.2;;
23360;SDS011;11852;50.082;18.554;2023-06-22T03:48:41;15.8;;;5.6;;
23360;SDS011;11852;50.082;18.554;2023-06-22T03:49:45;18.6;;;5.2;;
23360;SDS011;11852;50.082;18.554;2023-06-22T03:50:50;17.3;;;5.6;;
23360;SDS011;11852;50.082;18.554;2023-06-22T03:51:55;17.6;;;5.6;;
23360;SDS011;11852;50.082;18.554;2023-06-22T03:53:00;17.3;;;5.6;;
23360;SDS011;11852;50.082;18.554;2023-06-22T03:54:05;13.9;;;5.5;;
23360;SDS011;11852;50.082;18.554;2023-06-22T03:55:10;13.2;;;5.1;;
23360;SDS011;11852;50.082;18.554;2023-06-22T03:56:16;13.0;;;5.1;;
23360;SDS011;11852;50.082;18.554;2023-06-22T03:57:23;12.6;;;5.7;;
23360;SDS011;11852;50.082;18.554;2023-06-22T03:58:27;15.0;;;5.6;;
23360;SDS011;11852;50.082;18.554;2023-06-22T03:59:32;12.9;;;5.2;;
23360;SDS011;11852;50.082;18.554;2023-06-22T04:00:37;14.4;;;5.2;;
23360;SDS011;11852;50.082;18.554;2023-06-22T04:01:42;12.8;;;5.3;;
23360;SDS011;11852;50.082;18.554;2023-06-22T04:02:48;15.1;;;5.4;;
23360;SDS011;11852;50.082;18.554;2023-06-22T04:03:56;12.3;;;5.4;;
23360;SDS011;11852;50.082;18.554;2023-06-22T04:05:02;14.1;;;5.6;;
23360;SDS011;11852;50.082;18.554;2023-06-22T04:06:07;13.5;;;5.6;;
23360;SDS011;11852;50.082;18.554;2023-06-22T04:07:12;14.1;;;6.2;;
23360;SDS011;11852;50.082;18.554;2023-06-22T04:08:18;15.5;;;6.4;;
23360;SDS011;11852;50.082;18.554;2023-06-22T04:09:24;16.4;;;6.5;;
23360;SDS011;11852;50.082;18.554;2023-06-22T04:10:30;13.9;;;6.1;;
23360;SDS011;11852;50.082;18.554;2023-06-22T04:11:36;15.9;;;6.5;;
23360;SDS011;11852;50.082;18.554;2023-06-22T04:12:43;14.4;;;5.8;;
23360;SDS011;11852;50.082;18.554;2023-06-22T04:13:48;13.0;;;5.9;;
23360;SDS011;11852;50.082;18.554;2023-06-22T04:14:53;16.6;;;6.7;;
23360;SDS011;11852;50.082;18.554;2023-06-22T04:15:58;14.9;;;5.7;;
23360;SDS011;11852;50.082;18.554;2023-06-22T04:17:04;16.8;;;6.2;;
23360;SDS011;11852;50.082;18.554;2023-06-22T04:18:09;13.5;;;5.8;;
23360;SDS011;11852;50.082;18.554;2023-06-22T04:19:14;14.4;;;6.6;;
23360;SDS011;11852;50.082;18.554;2023-06-22T04:20:19;15.2;;;6.7;;
23360;SDS011;11852;50.082;18.554;2023-06-22T04:21:26;15.9;;;6.0;;
23360;SDS011;11852;50.082;18.554;2023-06-22T04:22:32;14.7;;;6.4;;
23360;SDS011;11852;50.082;18.554;2023-06-22T04:23:37;15.2;;;6.8;;
23360;SDS011;11852;50.082;18.554;2023-06-22T04:24:42;20.0;;;7.1;;
23360;SDS011;11852;50.082;18.554;2023-06-22T04:25:47;19.1;;;6.7;;
23360;SDS011;11852;50.082;18.554;2023-06-22T04:26:52;14.2;;;6.8;;
23360;SDS011;11852;50.082;18.554;2023-06-22T04:27:57;19.2;;;7.2;;
23360;SDS011;11852;50.082;18.554;2023-06-22T04:29:05;17.0;;;7.3;;
23360;SDS011;11852;50.082;18.554;2023-06-22T04:30:10;14.0;;;7.2;;
23360;SDS011;11852;50.082;18.554;2023-06-22T04:31:15;14.8;;;7.5;;
23360;SDS011;11852;50.082;18.554;2023-06-22T04:32:20;15.1;;;7.6;;
23360;SDS011;11852;50.082;18.554;2023-06-22T04:33:25;14.8;;;7.3;;
23360;SDS011;11852;50.082;18.554;2023-06-22T04:34:31;15.7;;;7.8;;
23360;SDS011;11852;50.082;18.554;2023-06-22T04:35:38;17.0;;;8.0;;
23360;SDS011;11852;50.082;18.554;2023-06-22T04:36:43;15.2;;;7.6;;
23360;SDS011;11852;50.082;18.554;2023-06-22T04:37:49;17.0;;;7.9;;
23360;SDS011;11852;50.082;18.554;2023-06-22T04:38:54;17.1;;;7.4;;
23360;SDS011;11852;50.082;18.554;2023-06-22T04:39:59;15.0;;;8.0;;
23360;SDS011;11852;50.082;18.554;2023-06-22T04:41:04;13.9;;;7.5;;
23360;SDS011;11852;50.082;18.554;2023-06-22T04:42:09;17.7;;;8.3;;
23360;SDS011;11852;50.082;18.554;2023-06-22T04:43:14;16.5;;;8.1;;
23360;SDS011;11852;50.082;18.554;2023-06-22T04:44:24;15.9;;;8.1;;
23360;SDS011;11852;50.082;18.554;2023-06-22T04:45:32;16.6;;;8.0;;
23360;SDS011;11852;50.082;18.554;2023-06-22T04:46:36;15.9;;;7.9;;
23360;SDS011;11852;50.082;18.554;2023-06-22T04:47:41;17.2;;;8.2;;
23360;SDS011;11852;50.082;18.554;2023-06-22T04:48:46;12.7;;;8.0;;
23360;SDS011;11852;50.082;18.554;2023-06-22T04:49:51;12.9;;;7.7;;
23360;SDS011;11852;50.082;18.554;2023-06-22T04:50:55;16.3;;;8.1;;
23360;SDS011;11852;50.082;18.554;2023-06-22T04:52:00;18.3;;;8.5;;
23360;SDS011;11852;50.082;18.554;2023-06-22T04:53:05;15.0;;;8.1;;
23360;SDS011;11852;50.082;18.554;2023-06-22T04:54:10;14.7;;;8.0;;
23360;SDS011;11852;50.082;18.554;2023-06-22T04:55:18;15.4;;;8.3;;
23360;SDS011;11852;50.082;18.554;2023-06-22T04:56:24;14.6;;;8.7;;
23360;SDS011;11852;50.082;18.554;2023-06-22T04:57:32;15.0;;;9.4;;
23360;SDS011;11852;50.082;18.554;2023-06-22T04:58:37;14.7;;;9.1;;
23360;SDS011;11852;50.082;18.554;2023-06-22T04:59:43;16.1;;;9.0;;
23360;SDS011;11852;50.082;18.554;2023-06-22T05:00:48;19.2;;;9.5;;
23360;SDS011;11852;50.082;18.554;2023-06-22T05:01:56;15.5;;;8.7;;
23360;SDS011;11852;50.082;18.554;2023-06-22T05:03:02;16.8;;;8.3;;
23360;SDS011;11852;50.082;18.554;2023-06-22T05:04:07;15.6;;;7.9;;
23360;SDS011;11852;50.082;18.554;2023-06-22T05:05:12;16.7;;;9.1;;
23360;SDS011;11852;50.082;18.554;2023-06-22T05:06:18;16.2;;;9.8;;
23360;SDS011;11852;50.082;18.554;2023-06-22T05:07:23;15.2;;;10.3;;
23360;SDS011;11852;50.082;18.554;2023-06-22T05:08:28;17.9;;;9.5;;
23360;SDS011;11852;50.082;18.554;2023-06-22T05:09:33;14.5;;;9.1;;
23360;SDS011;11852;50.082;18.554;2023-06-22T05:10:38;16.1;;;9.4;;
23360;SDS011;11852;50.082;18.554;2023-06-22T05:11:43;14.9;;;9.5;;
23360;SDS011;11852;50.082;18.554;2023-06-22T05:12:47;16.0;;;8.7;;
23360;SDS011;11852;50.082;18.554;2023-06-22T05:13:52;15.6;;;9.7;;
23360;SDS011;11852;50.082;18.554;2023-06-22T05:14:57;14.7;;;9.0;;
23360;SDS011;11852;50.082;18.554;2023-06-22T05:16:02;15.7;;;9.6;;
23360;SDS011;11852;50.082;18.554;2023-06-22T05:17:07;16.1;;;10.3;;
23360;SDS011;11852;50.082;18.554;2023-06-22T05:18:12;15.8;;;9.8;;
23360;SDS011;11852;50.082;18.554;2023-06-22T05:19:17;15.5;;;10.2;;
23360;SDS011;11852;50.082;18.554;2023-06-22T05:20:22;15.0;;;9.9;;
23360;SDS011;11852;50.082;18.554;2023-06-22T05:21:27;17.5;;;10.2;;
23360;SDS011;11852;50.082;18.554;2023-06-22T05:22:32;14.9;;;10.1;;
23360;SDS011;11852;50.082;18.554;2023-06-22T05:23:37;17.5;;;10.3;;
23360;SDS011;11852;50.082;18.554;2023-06-22T05:24:43;16.3;;;9.9;;
23360;SDS011;11852;50.082;18.554;2023-06-22T05:25:48;16.7;;;10.8;;
23360;SDS011;11852;50.082;18.554;2023-06-22T05:26:53;17.7;;;10.5;;
23360;SDS011;11852;50.082;18.554;2023-06-22T05:27:58;15.5;;;9.9;;
23360;SDS011;11852;50.082;18.554;2023-06-22T05:29:03;17.3;;;10.3;;
23360;SDS011;11852;50.082;18.554;2023-06-22T05:30:08;18.4;;;11.2;;
23360;SDS011;11852;50.082;18.554;2023-06-22T05:31:14;16.8;;;10.7;;
23360;SDS011;11852;50.082;18.554;2023-06-22T05:32:18;15.5;;;11.0;;
23360;SDS011;11852;50.082;18.554;2023-06-22T05:33:23;16.9;;;11.2;;
23360;SDS011;11852;50.082;18.554;2023-06-22T05:34:28;16.7;;;11.4;;
23360;SDS011;11852;50.082;18.554;2023-06-22T05:35:33;18.3;;;10.1;;
23360;SDS011;11852;50.082;18.554;2023-06-22T05:36:38;14.4;;;10.1;;
23360;SDS011;11852;50.082;18.554;2023-06-22T05:37:43;15.5;;;10.3;;
23360;SDS011;11852;50.082;18.554;2023-06-22T05:38:49;16.1;;;10.4;;
23360;SDS011;11852;50.082;18.554;2023-06-22T05:39:54;16.7;;;10.2;;
23360;SDS011;11852;50.082;18.554;2023-06-22T05:41:00;15.3;;;9.1;;
23360;SDS011;11852;50.082;18.554;2023-06-22T05:42:05;16.3;;;9.2;;
23360;SDS011;11852;50.082;18.554;2023-06-22T05:43:11;20.2;;;13.5;;
23360;SDS011;11852;50.082;18.554;2023-06-22T05:44:16;15.6;;;10.5;;
23360;SDS011;11852;50.082;18.554;2023-06-22T05:45:21;20.7;;;13.0;;
23360;SDS011;11852;50.082;18.554;2023-06-22T05:46:28;15.5;;;9.2;;
23360;SDS011;11852;50.082;18.554;2023-06-22T05:47:33;15.6;;;11.1;;
23360;SDS011;11852;50.082;18.554;2023-06-22T05:48:38;18.6;;;11.7;;
23360;SDS011;11852;50.082;18.554;2023-06-22T05:49:44;17.3;;;12.1;;
23360;SDS011;11852;50.082;18.554;2023-06-22T05:50:49;17.2;;;11.6;;
23360;SDS011;11852;50.082;18.554;2023-06-22T05:51:53;14.4;;;9.7;;
23360;SDS011;11852;50.082;18.554;2023-06-22T05:52:58;16.5;;;10.8;;
23360;SDS011;11852;50.082;18.554;2023-06-22T05:54:03;15.4;;;10.7;;
23360;SDS011;11852;50.082;18.554;2023-06-22T05:55:08;18.0;;;11.2;;
23360;SDS011;11852;50.082;18.554;2023-06-22T05:56:13;16.5;;;13.0;;
23360;SDS011;11852;50.082;18.554;2023-06-22T05:57:18;15.8;;;11.1;;
23360;SDS011;11852;50.082;18.554;2023-06-22T05:58:23;15.8;;;11.4;;
23360;SDS011;11852;50.082;18.554;2023-06-22T05:59:28;14.4;;;11.6;;
23360;SDS011;11852;50.082;18.554;2023-06-22T06:00:33;14.6;;;11.6;;
23360;SDS011;11852;50.082;18.554;2023-06-22T06:01:39;16.3;;;10.7;;
23360;SDS011;11852;50.082;18.554;2023-06-22T06:02:44;15.6;;;12.4;;
23360;SDS011;11852;50.082;18.554;2023-06-22T06:03:49;15.6;;;12.7;;
23360;SDS011;11852;50.082;18.554;2023-06-22T06:04:54;16.2;;;12.5;;
23360;SDS011;11852;50.082;18.554;2023-06-22T06:05:59;15.2;;;11.7;;
23360;SDS011;11852;50.082;18.554;2023-06-22T06:07:05;14.8;;;11.7;;
23360;SDS011;11852;50.082;18.554;2023-06-22T06:08:11;15.6;;;11.4;;
23360;SDS011;11852;50.082;18.554;2023-06-22T06:09:16;19.1;;;12.7;;
23360;SDS011;11852;50.082;18.554;2023-06-22T06:10:22;15.9;;;10.6;;
23360;SDS011;11852;50.082;18.554;2023-06-22T06:11:27;15.5;;;10.8;;
23360;SDS011;11852;50.082;18.554;2023-06-22T06:12:32;14.0;;;11.0;;
23360;SDS011;11852;50.082;18.554;2023-06-22T06:13:37;16.5;;;11.8;;
23360;SDS011;11852;50.082;18.554;2023-06-22T06:14:43;15.6;;;12.0;;
23360;SDS011;11852;50.082;18.554;2023-06-22T06:15:48;16.9;;;13.7;;
23360;SDS011;11852;50.082;18.554;2023-06-22T06:16:52;13.6;;;10.5;;
23360;SDS011;11852;50.082;18.554;2023-06-22T06:17:57;13.7;;;10.5;;
23360;SDS011;11852;50.082;18.554;2023-06-22T06:19:03;14.0;;;11.0;;
23360;SDS011;11852;50.082;18.554;2023-06-22T06:20:08;16.1;;;13.1;;
23360;SDS011;11852;50.082;18.554;2023-06-22T06:21:13;16.0;;;11.2;;
23360;SDS011;11852;50.082;18.554;2023-06-22T06:22:19;17.1;;;12.4;;
23360;SDS011;11852;50.082;18.554;2023-06-22T06:23:24;14.0;;;12.3;;
23360;SDS011;11852;50.082;18.554;2023-06-22T06:24:29;14.0;;;12.2;;
23360;SDS011;11852;50.082;18.554;2023-06-22T06:25:34;16.9;;;12.3;;
23360;SDS011;11852;50.082;18.554;2023-06-22T06:26:39;15.0;;;12.3;;
23360;SDS011;11852;50.082;18.554;2023-06-22T06:27:44;13.2;;;11.0;;
23360;SDS011;11852;50.082;18.554;2023-06-22T06:28:48;15.5;;;10.6;;
23360;SDS011;11852;50.082;18.554;2023-06-22T06:29:53;14.0;;;11.9;;
23360;SDS011;11852;50.082;18.554;2023-06-22T06:30:59;13.2;;;9.7;;
23360;SDS011;11852;50.082;18.554;2023-06-22T06:32:04;15.6;;;11.8;;
23360;SDS011;11852;50.082;18.554;2023-06-22T06:33:09;14.1;;;11.0;;
23360;SDS011;11852;50.082;18.554;2023-06-22T06:34:14;16.0;;;10.9;;
23360;SDS011;11852;50.082;18.554;2023-06-22T06:35:19;17.9;;;13.1;;
23360;SDS011;11852;50.082;18.554;2023-06-22T06:36:24;16.9;;;10.7;;
23360;SDS011;11852;50.082;18.554;2023-06-22T06:37:29;15.8;;;10.5;;
23360;SDS011;11852;50.082;18.554;2023-06-22T06:38:34;14.0;;;10.1;;
23360;SDS011;11852;50.082;18.554;2023-06-22T06:39:39;15.2;;;10.8;;
23360;SDS011;11852;50.082;18.554;2023-06-22T06:40:44;18.3;;;12.5;;
23360;SDS011;11852;50.082;18.554;2023-06-22T06:41:49;13.7;;;11.1;;
23360;SDS011;11852;50.082;18.554;2023-06-22T06:42:54;14.5;;;11.5;;
23360;SDS011;11852;50.082;18.554;2023-06-22T06:44:00;13.0;;;10.4;;